Terminal Aerodrome Forecast
Issued by NWS Corpus Christi, TX

Home | Current Version | Previous Version | Text Only | Print | Product List | Glossary On
Versions: 1 2 3 4 5 6 7 8 9 10 11 12 13 14 15 16 17
000
FTUS44 KCRP 062328
TAFCRP
TAF
KCRP 062328Z 0700/0724 14018G25KT P6SM BKN025
     FM070200 13015KT P6SM OVC015
     FM071500 16012G18KT P6SM OVC025
     FM071800 14015G25KT P6SM OVC035=

USA.gov is the U.S. government's official web portal to all federal, state and local government web resources and services.